createdAt,value
2022-12-24T00:01:05.966Z,1.90
2022-12-24T00:03:34.046Z,1.90
2022-12-24T00:06:09.462Z,1.40
2022-12-24T00:08:36.504Z,2.00
2022-12-24T00:11:03.511Z,1.50
2022-12-24T00:13:30.611Z,1.37
2022-12-24T00:15:57.588Z,1.13
2022-12-24T00:18:24.533Z,1.50
2022-12-24T00:20:51.696Z,1.50
2022-12-24T00:23:20.166Z,1.80
2022-12-24T00:25:47.186Z,1.40
2022-12-24T00:28:15.169Z,1.23
2022-12-24T00:30:43.150Z,1.23
2022-12-24T00:33:10.735Z,1.50
2022-12-24T00:35:38.864Z,1.50
2022-12-24T00:38:06.487Z,1.20
2022-12-24T00:40:33.640Z,1.23
2022-12-24T00:43:00.764Z,1.30
2022-12-24T00:45:28.227Z,1.73
2022-12-24T00:47:55.360Z,1.40
2022-12-24T00:50:22.401Z,1.50
2022-12-24T00:52:49.428Z,1.50
2022-12-24T00:55:16.562Z,1.53
2022-12-24T00:57:43.927Z,1.30
2022-12-24T01:00:11.309Z,1.47
2022-12-24T01:02:38.884Z,1.67
2022-12-24T01:05:12.221Z,1.17
2022-12-24T01:07:41.570Z,1.50
2022-12-24T01:10:10.399Z,1.60
2022-12-24T01:12:37.516Z,1.40
2022-12-24T01:15:05.744Z,1.30
2022-12-24T01:17:35.020Z,1.20
2022-12-24T01:20:02.594Z,1.37
2022-12-24T01:22:29.680Z,1.17
2022-12-24T01:24:56.659Z,2.23
2022-12-24T01:27:23.748Z,1.20
2022-12-24T01:29:50.697Z,1.60
2022-12-24T01:32:18.051Z,1.50
2022-12-24T01:34:45.088Z,1.20
2022-12-24T01:37:12.061Z,1.40
2022-12-24T01:39:39.092Z,1.90
2022-12-24T01:42:42.226Z,1.70
2022-12-24T01:45:37.594Z,1.30
2022-12-24T01:48:05.470Z,1.80
2022-12-24T01:50:32.557Z,1.30
2022-12-24T01:52:59.637Z,1.47
2022-12-24T01:55:26.994Z,1.63
2022-12-24T01:57:58.619Z,1.20
2022-12-24T02:00:25.784Z,1.13
2022-12-24T02:02:54.270Z,1.40
2022-12-24T02:05:40.548Z,1.40
2022-12-24T02:08:09.054Z,1.40
2022-12-24T02:10:36.084Z,1.43
2022-12-24T02:13:04.203Z,1.50
2022-12-24T02:15:58.084Z,1.30
2022-12-24T02:18:46.593Z,1.97
2022-12-24T02:21:53.329Z,1.53
2022-12-24T02:24:26.392Z,1.13
2022-12-24T02:27:03.890Z,1.27
2022-12-24T02:30:04.488Z,1.50
2022-12-24T02:32:52.968Z,1.47
2022-12-24T02:35:32.634Z,0.90
2022-12-24T02:38:14.483Z,1.33
2022-12-24T02:40:55.439Z,1.40
2022-12-24T02:43:27.046Z,1.37
2022-12-24T02:46:02.158Z,1.40
2022-12-24T02:48:30.822Z,1.30
2022-12-24T02:51:08.822Z,1.50
2022-12-24T02:53:36.901Z,1.30
2022-12-24T02:56:41.350Z,1.30
2022-12-24T02:59:48.289Z,1.30
2022-12-24T03:02:31.600Z,1.30
2022-12-24T03:05:29.663Z,1.83
2022-12-24T03:08:45.945Z,1.50
2022-12-24T03:11:15.491Z,1.10
2022-12-24T03:13:45.175Z,1.37
2022-12-24T03:16:16.962Z,1.23
2022-12-24T03:18:47.565Z,1.30
2022-12-24T03:21:20.992Z,1.23
2022-12-24T03:23:48.351Z,1.03
2022-12-24T03:26:18.634Z,1.30
2022-12-24T03:28:46.677Z,1.33
2022-12-24T03:31:14.219Z,2.27
2022-12-24T03:33:41.343Z,1.13
2022-12-24T03:36:09.227Z,1.93
2022-12-24T03:38:36.410Z,1.30
2022-12-24T03:41:03.758Z,1.23
2022-12-24T03:43:30.899Z,1.30
2022-12-24T03:45:57.993Z,1.63
2022-12-24T03:48:32.359Z,1.40
2022-12-24T03:50:59.811Z,1.10
2022-12-24T03:53:26.771Z,1.20
2022-12-24T03:55:53.866Z,1.10
2022-12-24T03:58:20.799Z,1.10
2022-12-24T04:00:47.845Z,1.50
2022-12-24T04:03:14.938Z,1.10
2022-12-24T04:05:42.096Z,1.13
2022-12-24T04:08:09.093Z,1.07
2022-12-24T04:10:36.031Z,1.17
2022-12-24T04:13:03.002Z,1.13
2022-12-24T04:15:30.005Z,1.00
2022-12-24T04:17:56.961Z,1.20
2022-12-24T04:20:23.941Z,1.20
2022-12-24T04:22:52.855Z,1.73
2022-12-24T04:25:19.937Z,1.20
2022-12-24T04:27:46.845Z,1.00
2022-12-24T04:30:14.084Z,1.00
2022-12-24T04:32:41.151Z,1.10
2022-12-24T04:35:08.524Z,1.43
2022-12-24T04:37:35.755Z,1.00
2022-12-24T04:40:02.926Z,0.80
2022-12-24T04:42:29.870Z,1.07
2022-12-24T04:44:56.806Z,1.10
2022-12-24T04:47:23.774Z,1.10
2022-12-24T04:49:50.880Z,1.00
2022-12-24T04:52:17.886Z,1.10
2022-12-24T04:54:44.858Z,1.00
2022-12-24T04:57:11.884Z,1.30
2022-12-24T04:59:39.060Z,1.27
2022-12-24T05:02:06.197Z,1.17
2022-12-24T05:04:33.381Z,1.20
2022-12-24T05:07:00.581Z,1.37
2022-12-24T05:09:27.719Z,1.97
2022-12-24T05:11:54.688Z,1.43
2022-12-24T05:14:22.781Z,1.20
2022-12-24T05:16:49.796Z,1.27
2022-12-24T05:19:16.906Z,1.10
2022-12-24T05:21:43.863Z,1.20
2022-12-24T05:24:30.215Z,1.10
2022-12-24T05:26:58.897Z,1.53
2022-12-24T05:29:25.919Z,1.43
2022-12-24T05:31:52.903Z,1.20
2022-12-24T05:34:19.904Z,1.40
2022-12-24T05:36:46.878Z,1.20
2022-12-24T05:39:16.772Z,1.23
2022-12-24T05:41:44.750Z,1.10
2022-12-24T05:44:11.832Z,1.53
2022-12-24T05:46:38.928Z,1.77
2022-12-24T05:49:06.131Z,1.30
2022-12-24T05:51:33.439Z,1.27
2022-12-24T05:54:01.661Z,1.33
2022-12-24T05:56:28.628Z,1.37
2022-12-24T05:58:55.703Z,1.67
2022-12-24T06:01:23.412Z,1.47
2022-12-24T06:03:51.467Z,1.60
2022-12-24T06:06:25.749Z,1.27
2022-12-24T06:08:54.149Z,1.23
2022-12-24T06:11:24.563Z,1.33
2022-12-24T06:13:52.527Z,1.40
2022-12-24T06:16:20.506Z,1.70
2022-12-24T06:18:48.146Z,1.70
2022-12-24T06:21:15.978Z,1.57
2022-12-24T06:23:44.880Z,1.43
2022-12-24T06:26:15.038Z,1.57
2022-12-24T06:28:42.054Z,1.87
2022-12-24T06:31:13.934Z,1.90
2022-12-24T06:33:41.735Z,1.97
2022-12-24T06:36:20.232Z,1.30
2022-12-24T06:38:48.651Z,1.70
2022-12-24T06:41:17.038Z,1.67
2022-12-24T06:43:49.062Z,1.80
2022-12-24T06:46:16.681Z,1.70
2022-12-24T06:48:47.517Z,1.53
2022-12-24T06:51:15.961Z,1.83
2022-12-24T06:53:43.031Z,1.80
2022-12-24T06:56:12.407Z,1.77
2022-12-24T06:58:40.849Z,1.83
2022-12-24T07:01:10.389Z,1.73
2022-12-24T07:03:37.627Z,1.80
2022-12-24T07:06:04.849Z,1.63
2022-12-24T07:08:34.187Z,1.73
2022-12-24T07:11:01.456Z,2.10
2022-12-24T07:13:29.292Z,1.53
2022-12-24T07:16:00.781Z,2.03
2022-12-24T07:18:28.749Z,2.20
2022-12-24T07:20:55.787Z,2.00
2022-12-24T07:23:23.007Z,2.50
2022-12-24T07:25:49.962Z,2.20
2022-12-24T07:28:17.471Z,2.30
2022-12-24T07:30:46.024Z,2.67
2022-12-24T07:33:13.048Z,1.80
2022-12-24T07:35:40.149Z,1.90
2022-12-24T07:38:08.421Z,1.70
2022-12-24T07:40:35.632Z,1.90
2022-12-24T07:43:02.648Z,2.30
2022-12-24T07:45:29.729Z,1.43
2022-12-24T07:47:56.782Z,1.60
2022-12-24T07:50:23.873Z,1.60
2022-12-24T07:52:50.858Z,2.90
2022-12-24T07:55:17.903Z,1.77
2022-12-24T07:57:44.879Z,1.63
2022-12-24T08:00:12.135Z,1.60
2022-12-24T08:02:39.592Z,2.10
2022-12-24T08:05:07.337Z,1.70
2022-12-24T08:07:44.658Z,2.67
2022-12-24T08:10:11.777Z,1.90
2022-12-24T08:12:38.876Z,1.83
2022-12-24T08:15:06.389Z,2.03
2022-12-24T08:17:33.454Z,2.10
2022-12-24T08:20:00.473Z,2.00
2022-12-24T08:22:27.459Z,2.47
2022-12-24T08:24:54.378Z,2.43
2022-12-24T08:27:21.353Z,2.13
2022-12-24T08:29:48.377Z,1.97
2022-12-24T08:32:15.311Z,2.40
2022-12-24T08:34:44.652Z,2.17
2022-12-24T08:37:11.786Z,2.80
2022-12-24T08:39:38.925Z,2.33
2022-12-24T08:42:06.076Z,1.67
2022-12-24T08:44:33.064Z,1.70
2022-12-24T08:47:00.130Z,2.50
2022-12-24T08:49:27.578Z,2.70
2022-12-24T08:51:56.513Z,2.30
2022-12-24T08:54:25.359Z,2.00
2022-12-24T08:56:52.345Z,1.97
2022-12-24T08:59:19.421Z,2.27
2022-12-24T09:01:46.553Z,2.87
2022-12-24T09:04:13.639Z,2.10
2022-12-24T09:06:41.246Z,2.87
2022-12-24T09:09:08.764Z,2.27
2022-12-24T09:11:36.368Z,1.83
2022-12-24T09:14:03.507Z,2.00
2022-12-24T09:16:30.566Z,2.10
2022-12-24T09:18:58.598Z,2.07
2022-12-24T09:21:25.649Z,1.97
2022-12-24T09:23:52.634Z,1.77
2022-12-24T09:26:22.652Z,1.80
2022-12-24T09:28:49.907Z,2.03
2022-12-24T09:31:17.379Z,2.20
2022-12-24T09:33:49.025Z,2.17
2022-12-24T09:36:16.789Z,1.70
2022-12-24T09:38:45.581Z,1.90
2022-12-24T09:41:23.029Z,1.70
2022-12-24T09:44:00.866Z,1.70
2022-12-24T09:46:35.238Z,2.30
2022-12-24T09:49:12.136Z,2.13
2022-12-24T09:52:00.398Z,2.97
2022-12-24T09:54:37.568Z,2.23
2022-12-24T09:57:28.201Z,2.20
2022-12-24T09:59:56.263Z,2.00
2022-12-24T10:02:23.911Z,2.10
2022-12-24T10:04:51.663Z,2.10
2022-12-24T10:07:42.928Z,2.13
2022-12-24T10:10:30.965Z,2.33
2022-12-24T10:13:12.645Z,1.83
2022-12-24T10:16:08.804Z,2.10
2022-12-24T10:19:32.913Z,2.87
2022-12-24T10:22:19.152Z,2.53
2022-12-24T10:25:19.829Z,2.03
2022-12-24T10:27:47.043Z,2.37
2022-12-24T10:30:20.001Z,2.97
2022-12-24T10:32:54.804Z,1.77
2022-12-24T10:35:40.660Z,3.03
2022-12-24T10:38:09.349Z,2.40
2022-12-24T10:40:43.930Z,1.87
2022-12-24T10:43:22.986Z,2.37
2022-12-24T10:46:03.346Z,2.30
2022-12-24T10:48:46.397Z,2.57
2022-12-24T10:51:30.083Z,2.57
2022-12-24T10:54:07.684Z,1.97
2022-12-24T10:56:42.965Z,2.23
2022-12-24T10:59:25.779Z,2.20
2022-12-24T11:01:53.434Z,1.70
2022-12-24T11:04:26.338Z,1.97
2022-12-24T11:06:54.646Z,1.87
2022-12-24T11:09:30.508Z,2.10
2022-12-24T11:12:02.542Z,2.33
2022-12-24T11:14:36.689Z,2.20
2022-12-24T11:17:05.207Z,1.90
2022-12-24T11:19:35.862Z,1.70
2022-12-24T11:22:26.143Z,2.23
2022-12-24T11:25:19.207Z,2.93
2022-12-24T11:27:50.824Z,2.93
2022-12-24T11:30:22.485Z,2.53
2022-12-24T11:33:10.954Z,2.00
2022-12-24T11:35:50.694Z,2.40
2022-12-24T11:38:23.700Z,2.63
2022-12-24T11:41:05.562Z,2.37
2022-12-24T11:43:47.230Z,2.53
2022-12-24T11:46:42.317Z,2.13
2022-12-24T11:49:12.362Z,2.20
2022-12-24T11:52:03.933Z,2.30
2022-12-24T11:54:37.976Z,1.80
2022-12-24T11:57:07.851Z,2.27
2022-12-24T11:59:38.677Z,2.47
2022-12-24T12:02:29.905Z,2.10
2022-12-24T12:05:17.546Z,2.27
2022-12-24T12:07:49.723Z,2.33
2022-12-24T12:10:25.213Z,3.37
2022-12-24T12:13:12.947Z,2.50
2022-12-24T12:15:48.689Z,2.40
2022-12-24T12:18:19.564Z,2.73
2022-12-24T12:20:54.217Z,2.27
2022-12-24T12:23:44.372Z,2.73
2022-12-24T12:26:13.431Z,2.60
2022-12-24T12:28:55.822Z,2.67
2022-12-24T12:31:55.491Z,2.40
2022-12-24T12:34:26.082Z,2.53
2022-12-24T12:36:57.708Z,2.10
2022-12-24T12:39:24.670Z,2.70
2022-12-24T12:42:23.895Z,1.83
2022-12-24T12:44:56.686Z,2.37
2022-12-24T12:47:41.569Z,2.27
2022-12-24T12:50:47.023Z,1.83
2022-12-24T12:53:30.633Z,3.13
2022-12-24T12:56:35.674Z,3.63
2022-12-24T12:59:10.256Z,2.17
2022-12-24T13:01:50.336Z,2.27
2022-12-24T13:04:54.853Z,2.57
2022-12-24T13:07:37.505Z,2.70
2022-12-24T13:10:46.303Z,2.70
2022-12-24T13:13:40.542Z,2.40
2022-12-24T13:16:29.789Z,2.37
2022-12-24T13:19:10.263Z,2.40
2022-12-24T13:21:42.762Z,2.57
2022-12-24T13:24:19.148Z,2.90
2022-12-24T13:27:14.777Z,2.70
2022-12-24T13:29:55.705Z,2.97
2022-12-24T13:32:22.667Z,2.60
2022-12-24T13:34:55.750Z,3.27
2022-12-24T13:37:31.622Z,3.13
2022-12-24T13:40:10.061Z,3.43
2022-12-24T13:42:59.407Z,3.10
2022-12-24T13:45:30.120Z,3.23
2022-12-24T13:48:22.815Z,2.70
2022-12-24T13:50:59.135Z,3.50
2022-12-24T13:53:33.701Z,4.57
2022-12-24T13:56:07.495Z,3.00
2022-12-24T13:58:37.583Z,2.87
2022-12-24T14:01:17.130Z,2.90
2022-12-24T14:03:54.290Z,4.17
2022-12-24T14:06:39.007Z,4.93
2022-12-24T14:09:20.264Z,3.87
2022-12-24T14:12:16.394Z,3.23
2022-12-24T14:14:43.968Z,3.03
2022-12-24T14:17:23.219Z,3.30
2022-12-24T14:19:56.425Z,2.80
2022-12-24T14:22:23.355Z,3.23
2022-12-24T14:25:13.090Z,4.07
2022-12-24T14:27:46.534Z,2.97
2022-12-24T14:30:18.809Z,3.47
2022-12-24T14:32:46.763Z,4.20
2022-12-24T14:35:22.274Z,3.87
2022-12-24T14:38:09.574Z,3.93
2022-12-24T14:40:54.975Z,4.97
2022-12-24T14:43:49.573Z,4.20
2022-12-24T14:46:33.726Z,4.10
2022-12-24T14:49:42.660Z,4.57
2022-12-24T14:53:04.247Z,4.20
2022-12-24T14:55:36.046Z,3.73
2022-12-24T14:58:21.928Z,3.67
2022-12-24T15:00:49.896Z,3.23
2022-12-24T15:03:20.189Z,4.27
2022-12-24T15:05:52.943Z,3.37
2022-12-24T15:08:31.010Z,5.00
2022-12-24T15:11:01.956Z,3.60
2022-12-24T15:13:36.628Z,4.30
2022-12-24T15:16:07.689Z,5.53
2022-12-24T15:18:37.546Z,5.77
2022-12-24T15:21:07.750Z,4.03
2022-12-24T15:23:45.036Z,7.70
2022-12-24T15:26:36.767Z,6.00
2022-12-24T15:29:21.341Z,4.30
2022-12-24T15:31:57.510Z,4.63
2022-12-24T15:34:30.264Z,3.73
2022-12-24T15:37:08.162Z,4.57
2022-12-24T15:39:35.284Z,4.03
2022-12-24T15:42:14.446Z,4.60
2022-12-24T15:45:04.731Z,3.80
2022-12-24T15:47:45.368Z,3.73
2022-12-24T15:50:24.858Z,3.93
2022-12-24T15:53:18.684Z,4.60
2022-12-24T15:55:44.735Z,3.67
2022-12-24T15:58:33.481Z,4.63
2022-12-24T16:01:28.613Z,4.83
2022-12-24T16:03:58.579Z,4.50
2022-12-24T16:06:27.674Z,4.80
2022-12-24T16:08:56.596Z,4.30
2022-12-24T16:11:34.995Z,4.43
2022-12-24T16:14:28.715Z,4.63
2022-12-24T16:16:58.604Z,4.63
2022-12-24T16:19:37.647Z,3.60
2022-12-24T16:22:25.744Z,4.10
2022-12-24T16:24:52.813Z,4.20
2022-12-24T16:27:19.855Z,4.40
2022-12-24T16:29:47.181Z,4.40
2022-12-24T16:32:47.617Z,3.50
2022-12-24T16:35:27.758Z,3.73
2022-12-24T16:37:55.650Z,4.47
2022-12-24T16:40:27.367Z,4.27
2022-12-24T16:43:17.137Z,5.80
2022-12-24T16:45:46.423Z,5.83
2022-12-24T16:48:25.099Z,5.23
2022-12-24T16:50:53.633Z,4.27
2022-12-24T16:53:22.944Z,4.10
2022-12-24T16:55:51.692Z,3.70
2022-12-24T16:58:19.789Z,4.07
2022-12-24T17:00:48.299Z,4.00
2022-12-24T17:03:15.434Z,4.13
2022-12-24T17:05:43.997Z,3.97
2022-12-24T17:08:11.260Z,4.23
2022-12-24T17:10:38.929Z,5.77
2022-12-24T17:13:06.327Z,3.50
2022-12-24T17:15:33.978Z,4.07
2022-12-24T17:18:01.072Z,3.97
2022-12-24T17:20:28.121Z,3.63
2022-12-24T17:22:55.181Z,3.30
2022-12-24T17:25:22.220Z,3.83
2022-12-24T17:27:49.291Z,3.60
2022-12-24T17:30:16.970Z,3.63
2022-12-24T17:32:44.586Z,3.43
2022-12-24T17:35:11.837Z,5.37
2022-12-24T17:37:38.899Z,3.80
2022-12-24T17:40:06.731Z,4.20
2022-12-24T17:42:33.828Z,4.63
2022-12-24T17:45:01.147Z,3.40
2022-12-24T17:47:28.171Z,3.63
2022-12-24T17:49:55.250Z,3.53
2022-12-24T17:52:22.367Z,4.17
2022-12-24T17:54:49.369Z,5.23
2022-12-24T17:57:16.741Z,5.57
2022-12-24T17:59:43.720Z,4.57
2022-12-24T18:02:12.830Z,5.83
2022-12-24T18:04:39.985Z,4.77
2022-12-24T18:07:07.021Z,5.40
2022-12-24T18:09:34.200Z,4.73
2022-12-24T18:12:01.343Z,6.70
2022-12-24T18:14:28.760Z,6.27
2022-12-24T18:16:55.739Z,4.53
2022-12-24T18:19:22.820Z,4.00
2022-12-24T18:21:49.790Z,3.67
2022-12-24T18:24:16.826Z,5.37
2022-12-24T18:26:45.745Z,4.13
2022-12-24T18:29:13.176Z,4.43
2022-12-24T18:31:40.734Z,4.43
2022-12-24T18:34:10.482Z,4.70
2022-12-24T18:36:37.751Z,3.47
2022-12-24T18:39:06.255Z,3.37
2022-12-24T18:41:33.448Z,4.30
2022-12-24T18:44:00.790Z,3.70
2022-12-24T18:46:32.935Z,3.53
2022-12-24T18:49:03.019Z,3.50
2022-12-24T18:51:34.414Z,3.30
2022-12-24T18:54:03.080Z,3.27
2022-12-24T18:56:30.736Z,3.23
2022-12-24T18:59:00.970Z,3.20
2022-12-24T19:01:30.844Z,3.37
2022-12-24T19:03:58.272Z,3.03
2022-12-24T19:06:26.136Z,2.60
2022-12-24T19:09:01.713Z,3.50
2022-12-24T19:11:31.995Z,4.00
2022-12-24T19:13:59.694Z,4.13
2022-12-24T19:16:28.329Z,3.47
2022-12-24T19:18:56.010Z,4.30
2022-12-24T19:21:24.424Z,3.47
2022-12-24T19:23:51.999Z,3.47
2022-12-24T19:26:19.858Z,3.27
2022-12-24T19:28:47.274Z,4.13
2022-12-24T19:31:17.036Z,4.43
2022-12-24T19:33:49.489Z,3.97
2022-12-24T19:36:22.684Z,4.00
2022-12-24T19:38:50.186Z,3.80
2022-12-24T19:41:19.980Z,4.37
2022-12-24T19:43:49.422Z,4.10
2022-12-24T19:46:19.826Z,3.90
2022-12-24T19:49:07.642Z,3.80
2022-12-24T19:51:35.569Z,5.20
2022-12-24T19:54:04.152Z,3.70
2022-12-24T19:56:32.940Z,3.97
2022-12-24T19:59:02.786Z,3.80
2022-12-24T20:01:32.901Z,4.80
2022-12-24T20:04:00.830Z,5.07
2022-12-24T20:06:31.246Z,4.97
2022-12-24T20:09:05.048Z,3.73
2022-12-24T20:11:32.364Z,4.00
2022-12-24T20:14:02.028Z,4.07
2022-12-24T20:16:29.818Z,3.87
2022-12-24T20:19:03.686Z,4.17
2022-12-24T20:21:31.444Z,4.63
2022-12-24T20:23:58.683Z,4.40
2022-12-24T20:26:28.587Z,3.43
2022-12-24T20:28:56.235Z,4.70
2022-12-24T20:31:28.839Z,3.93
2022-12-24T20:34:00.052Z,4.13
2022-12-24T20:36:29.285Z,4.50
2022-12-24T20:38:56.848Z,3.83
2022-12-24T20:41:26.025Z,3.93
2022-12-24T20:43:53.437Z,3.67
2022-12-24T20:46:22.832Z,4.47
2022-12-24T20:48:50.757Z,3.93
2022-12-24T20:51:24.162Z,3.93
2022-12-24T20:53:54.051Z,3.93
2022-12-24T20:56:21.664Z,2.80
2022-12-24T20:58:48.672Z,3.10
2022-12-24T21:01:18.767Z,3.60
2022-12-24T21:03:46.382Z,4.10
2022-12-24T21:06:14.061Z,3.40
2022-12-24T21:08:41.122Z,3.10
2022-12-24T21:11:26.761Z,3.53
2022-12-24T21:13:53.964Z,3.27
2022-12-24T21:16:21.020Z,4.50
2022-12-24T21:18:48.194Z,4.03
2022-12-24T21:21:15.396Z,4.20
2022-12-24T21:23:42.358Z,3.73
2022-12-24T21:26:09.445Z,3.37
2022-12-24T21:28:36.593Z,3.60
2022-12-24T21:31:11.826Z,3.90
2022-12-24T21:33:39.031Z,3.90
2022-12-24T21:36:06.680Z,4.27
2022-12-24T21:38:34.653Z,3.97
2022-12-24T21:41:15.826Z,3.97
2022-12-24T21:43:44.047Z,4.17
2022-12-24T21:46:20.270Z,3.90
2022-12-24T21:49:05.802Z,4.03
2022-12-24T21:51:33.235Z,3.40
2022-12-24T21:54:18.702Z,4.23
2022-12-24T21:57:04.650Z,4.47
2022-12-24T21:59:31.705Z,4.90
2022-12-24T22:01:58.971Z,4.47
2022-12-24T22:04:26.703Z,4.60
2022-12-24T22:07:12.808Z,4.47
2022-12-24T22:09:59.043Z,5.13
2022-12-24T22:12:29.438Z,4.73
2022-12-24T22:14:56.435Z,4.47
2022-12-24T22:17:25.799Z,5.30
2022-12-24T22:19:56.977Z,4.73
2022-12-24T22:22:24.379Z,4.10
2022-12-24T22:24:51.552Z,4.67
2022-12-24T22:27:18.657Z,4.80
2022-12-24T22:29:45.675Z,4.63
2022-12-24T22:32:12.824Z,4.53
2022-12-24T22:34:39.771Z,4.30
2022-12-24T22:37:07.049Z,4.37
2022-12-24T22:39:36.547Z,5.27
2022-12-24T22:42:03.797Z,4.50
2022-12-24T22:44:30.789Z,3.90
2022-12-24T22:46:57.792Z,5.20
2022-12-24T22:49:24.971Z,5.23
2022-12-24T22:51:52.108Z,4.37
2022-12-24T22:54:19.139Z,4.27
2022-12-24T22:56:46.206Z,4.30
2022-12-24T22:59:14.081Z,5.57
2022-12-24T23:01:44.809Z,6.00
2022-12-24T23:04:13.194Z,4.43
2022-12-24T23:06:41.180Z,4.73
2022-12-24T23:09:10.591Z,5.07
2022-12-24T23:11:37.648Z,4.20
2022-12-24T23:14:22.989Z,4.70
2022-12-24T23:16:50.303Z,4.20
2022-12-24T23:19:17.414Z,4.53
2022-12-24T23:21:44.504Z,5.00
2022-12-24T23:24:11.668Z,4.80
2022-12-24T23:26:38.748Z,4.53
2022-12-24T23:29:06.754Z,4.60
2022-12-24T23:31:35.045Z,4.00
2022-12-24T23:34:02.291Z,4.47
2022-12-24T23:36:29.460Z,4.33
2022-12-24T23:38:57.930Z,5.17
2022-12-24T23:41:25.288Z,4.53
2022-12-24T23:43:52.496Z,4.30
2022-12-24T23:46:20.791Z,4.47
2022-12-24T23:48:48.483Z,4.20
2022-12-24T23:51:18.119Z,4.00
2022-12-24T23:53:45.447Z,4.23
2022-12-24T23:56:12.772Z,4.13
2022-12-24T23:58:41.606Z,3.63
